Denver, Colorado
Traffic Map
Current Weather Conditions
Denver, Colorado
Overcast
Overcast
-5°
Feels Like: -11°
Wind Chill: -11° Ceiling: 900
Heat Index: -5° Visibility: 7mi
Dew Point: -5° Wind: 9mph
Humidity: 100% Direction: 30° (NNE)
Pressure: 29.61in Gusts: 0mph
Raw Report DataKBKF 242139Z 03008KT 7SM OVC009 M05/M05 A2961 RMK AO2A
Traffic Incident Summary
Active as of:
Severity:
Category:
InformationThere was an issue retrieving the traffic information for this location. Please try a different location or try again shortly.
Advertisements
Track Severe Weather on mobile